createdAt,value
2023-05-20T04:54:39.891Z,6.4
2023-05-20T05:00:29.919Z,6.6
2023-05-20T05:06:20.950Z,5.4
2023-05-20T05:12:11.538Z,7.4
2023-05-20T05:18:02.239Z,5.3
2023-05-20T05:23:54.412Z,5.9
2023-05-20T05:29:50.871Z,4.8
2023-05-20T05:35:42.433Z,6.3
2023-05-20T05:41:35.068Z,6.5
2023-05-20T05:47:25.987Z,6
2023-05-20T05:53:16.412Z,5.8
2023-05-20T05:59:24.621Z,6.3
2023-05-20T06:05:16.598Z,6.9
2023-05-20T06:11:14.280Z,9.4
2023-05-20T06:17:09.971Z,6.8
2023-05-20T06:23:02.775Z,7.1
2023-05-20T06:29:04.399Z,5.8
2023-05-20T06:35:21.616Z,6.6
2023-05-20T06:47:55.163Z,7.2
2023-05-20T07:31:45.773Z,6.5
2023-05-20T07:37:50.198Z,9.4
2023-05-20T07:50:56.827Z,5.9
2023-05-20T07:56:52.492Z,6.6
2023-05-20T08:02:55.995Z,6.7
2023-05-20T08:09:06.766Z,5.5
2023-05-20T08:15:23.153Z,7.4
2023-05-20T08:21:29.117Z,7
2023-05-20T08:34:17.990Z,6.2
2023-05-20T08:41:05.618Z,7.8
2023-05-20T08:53:51.872Z,6.5
2023-05-20T08:59:50.731Z,7.1
2023-05-20T09:06:02.734Z,7
2023-05-20T09:19:49.660Z,6.9
2023-05-20T10:13:31.862Z,6.4
2023-05-20T10:19:26.172Z,7.2
2023-05-20T10:25:17.648Z,8
2023-05-20T10:31:10.306Z,6.3
2023-05-20T10:37:04.619Z,6.9
2023-05-20T10:42:58.083Z,7.6
2023-05-20T10:49:01.791Z,9.7
2023-05-20T10:54:57.811Z,11.8
2023-05-20T11:00:51.052Z,7.8
2023-05-20T11:06:44.517Z,10.6
2023-05-20T11:12:36.854Z,9.2
2023-05-20T11:18:27.143Z,7.8
2023-05-20T11:24:19.259Z,7
2023-05-20T11:31:19.550Z,8.2
2023-05-20T11:37:13.345Z,10.9
2023-05-20T11:48:57.430Z,7.6
2023-05-20T11:57:11.842Z,8
2023-05-20T12:04:08.975Z,7.3
2023-05-20T12:10:01.141Z,8.4
2023-05-20T12:15:55.618Z,7.1
2023-05-20T12:21:47.474Z,8.2
2023-05-20T12:28:50.023Z,8.1
2023-05-20T12:34:40.925Z,6.9
2023-05-20T12:40:34.675Z,8.5
2023-05-20T12:51:05.022Z,7.2
2023-05-20T12:56:55.786Z,7.7
2023-05-20T13:02:50.224Z,7.7
2023-05-20T13:25:57.936Z,7.5
2023-05-20T13:32:09.902Z,6.6
2023-05-20T13:41:35.495Z,7.5
2023-05-20T13:48:32.153Z,9.3
2023-05-20T13:54:21.635Z,8.7
2023-05-20T14:00:13.747Z,7.9
2023-05-20T14:06:06.973Z,8.6
2023-05-20T14:20:03.834Z,8.3
2023-05-20T14:27:04.183Z,7.3
2023-05-20T14:34:04.670Z,8.8
2023-05-20T14:39:55.360Z,7.4
2023-05-20T14:45:48.458Z,8.5
2023-05-20T14:52:49.293Z,8.8
2023-05-20T14:58:42.222Z,8.6
2023-05-20T15:04:33.837Z,9.6
2023-05-20T15:10:26.318Z,9
2023-05-20T15:16:18.541Z,10
2023-05-20T15:22:10.395Z,8.1
2023-05-20T15:28:02.604Z,8.7
2023-05-20T15:38:36.217Z,10.6
2023-05-20T15:44:26.395Z,15.7
2023-05-20T15:50:19.638Z,9.2
2023-05-20T15:56:13.472Z,7.3
2023-05-20T16:02:05.015Z,9.6
2023-05-20T16:07:56.985Z,8.4
2023-05-20T16:16:07.080Z,8.6
2023-05-20T16:21:55.648Z,10.8
2023-05-20T16:27:49.420Z,9.6
2023-05-20T16:33:42.100Z,9.4
2023-05-20T16:39:34.718Z,9.9
2023-05-20T16:45:28.328Z,9
2023-05-20T16:51:20.889Z,18.8
2023-05-20T16:57:13.589Z,15.4
2023-05-20T17:03:04.451Z,11.2
2023-05-20T17:08:57.522Z,19.1
2023-05-20T17:14:51.092Z,10.8
2023-05-20T17:20:44.396Z,8.7
2023-05-20T17:26:35.751Z,8.7
2023-05-20T17:32:27.412Z,10.3
2023-05-20T17:38:18.430Z,8.8
2023-05-20T17:46:31.378Z,8.9
2023-05-20T17:52:21.904Z,14.2
2023-05-20T17:58:13.797Z,7.8
2023-05-20T18:04:08.158Z,7.9
2023-05-20T18:10:04.714Z,8.9
2023-05-20T18:15:58.998Z,8.9
2023-05-20T18:21:58.696Z,9.1
2023-05-20T18:27:50.408Z,10.3
2023-05-20T18:33:42.808Z,9.1
2023-05-20T18:39:39.887Z,8.4
2023-05-20T18:45:34.601Z,9.5
2023-05-20T18:51:39.147Z,9.7
2023-05-20T18:57:29.728Z,10.4
2023-05-20T19:03:21.295Z,10.2
2023-05-20T19:09:14.358Z,10.7
2023-05-20T19:15:06.161Z,10.9
2023-05-20T19:21:03.681Z,12
2023-05-20T19:27:03.021Z,11.9
2023-05-20T19:32:54.917Z,13.4
2023-05-20T19:38:50.012Z,12.4
2023-05-20T19:44:46.542Z,12.2
2023-05-20T19:50:45.710Z,12.6
2023-05-20T19:56:42.229Z,12.1
2023-05-20T20:02:34.830Z,12.2
2023-05-20T20:08:32.426Z,13.4
2023-05-20T20:14:26.839Z,13.8
2023-05-20T20:20:19.185Z,17.4
2023-05-20T20:26:13.810Z,12.6
2023-05-20T20:32:07.421Z,12
2023-05-20T20:38:00.267Z,14.1
2023-05-20T20:44:03.295Z,13
2023-05-20T20:49:55.066Z,12.8
2023-05-20T20:55:56.327Z,15.4
2023-05-20T21:01:48.383Z,15
2023-05-20T21:07:40.735Z,14.8
2023-05-20T21:13:33.809Z,15
2023-05-20T21:19:30.281Z,13.4
2023-05-20T21:25:21.357Z,14.2
2023-05-20T21:31:14.037Z,13.1
2023-05-20T21:37:07.048Z,12.7
2023-05-20T21:42:57.994Z,15.3
2023-05-20T21:48:58.139Z,16
2023-05-20T21:54:51.558Z,13.7
2023-05-20T22:00:46.461Z,12.9
2023-05-20T22:06:39.024Z,13.3
2023-05-20T22:12:31.461Z,14.2
2023-05-20T22:18:24.318Z,13.8
2023-05-20T22:24:18.833Z,14.9
2023-05-20T22:30:17.733Z,17.2
2023-05-20T22:36:14.261Z,17.8
2023-05-20T22:42:06.952Z,16.2
2023-05-20T22:47:58.730Z,16.2
2023-05-20T22:53:51.291Z,15.2
2023-05-20T22:59:43.374Z,13.6
2023-05-20T23:05:36.019Z,16.9
2023-05-20T23:11:30.425Z,14.1
2023-05-20T23:17:22.100Z,14.1
2023-05-20T23:23:30.238Z,14.5
2023-05-20T23:29:23.973Z,15.5
2023-05-20T23:35:15.756Z,14.3
2023-05-20T23:41:09.908Z,15.3
2023-05-20T23:47:01.081Z,15.7
2023-05-20T23:52:53.170Z,16.5
2023-05-20T23:58:45.443Z,17.5
